Terminal Aerodrome Forecast
Issued by NWS Bismarck, ND

Home | Current Version | Previous Version | Text Only | Print | Product List | Glossary On
Versions: 1 2 3 4 5 6 7 8 9 10 11 12 13 14 15 16
619
FTUS43 KBIS 281407 AAB
TAFISN
TAF AMD
KISN 281407Z 2814/2912 02005KT P6SM VCSH SCT009 BKN100
     FM281700 07006KT P6SM BKN035
     FM282100 03004KT P6SM VCSH BKN050
     FM282300 01006KT P6SM OVC060=

USA.gov is the U.S. government's official web portal to all federal, state and local government web resources and services.